Ships in port

Last updated: 22-07-2019 07:30

Ship name Call sign IMO Agent Date Time Berth Arrived From Purpose of call Cargo Loaded in/for Homeport ETD Date ETD Time GT Deadweight Width (BR) DR arr. Length (LOA)
HAVILA FANØ 3YBL 9538531 Total E&P Danmark A/S 22-07-2019 07:15 504 DK OFFSHORE INSTALLATIONS Discharge/load Offshore cargo FOSNAVÅG 22-07-2019 16:00 3062 4000 17,6 6,0 80,4
KEY BREEZE ZDKS2 9344265 Juhl & Ehrhorn 22-07-2019 07:00 69 Thyborøn Load Fish oil GIBRALTAR 23-07-2019 12:22 2885 4296 14,2 4,7 96,8
ABB LYDIA H9NX 9260378 Blue Water Shipping A/S 22-07-2019 03:40 714 Onne Load Wind mill equipment PANAMA 22-07-2019 20:00 9611 12840 21,0 6,5 138,1
BLUE TERN 2FEP5 9598737 Blue Water Shipping A/S 21-07-2019 21:00 801 DK OFFSHORE INSTALLATIONS Load Wind mill equipment Dover 24-07-2019 12:22 19697 11013 50,0 6,4 151,0
BW IRIDIUM MCCP5 9749697 Blue Water Shipping A/S 21-07-2019 18:45 103 US OTHER SOUTH PACIFIC Discharge Fish oil DOUGLAS 23-07-2019 12:00 11918 19974 24,0 9,5 146,5
ARRIVER OWKJ2 9669005 Northern Offshore Services A/S 21-07-2019 18:30 24 DK OFFSHORE INSTALLATIONS Passenger call Passengers ESBJERG 22-07-2019 07:22 131 55 8,0 2,1 22,0
ARCTIC ROCK PBUW 9650901 Juhl & Ehrhorn 21-07-2019 18:25 808 Rostock Load Wind turbines URK 22-07-2019 14:22 2989 3000 14,8 4,6 92,2
WILHELMINA (E 78) OUSS 8718811 Fiskeriselskabet Cardium A/S 21-07-2019 17:15 62 OTHER DENMARK Discharge Bivalves (muslinger) ESBJERG 31-07-2019 16:22 283 316 10,0 2,2 40,2
ARK GERMANIA OZHJ2 9609952 DFDS A/S 21-07-2019 15:15 814 Immingham Discharge/load Trailers København 22-07-2019 20:30 33313 24485 33,2 6,2 195,2
ISLAND COMMANDER LALW 9409663 NorSea Group Denmark A/S 21-07-2019 14:15 505 DK OFFSHORE INSTALLATIONS Discharge/load Offshore cargo ÅLESUND 22-07-2019 12:00 4573 4100 20,0 5,2 93,0
SIDDIS MARINER LAIY 9475181 Total E&P Danmark A/S 21-07-2019 06:50 402 DK OFFSHORE INSTALLATIONS Repair Stavanger 25-07-2019 19:00 5106 4800 20,0 5,1 88,3
ARA HAMBURG CQAO6 9448451 Blue Water Shipping A/S 21-07-2019 05:05 812 Terneuzen Load Wind turbines MADEIRA 22-07-2019 12:22 6351 9851 15,9 5,5 132,2
VESTVIND 9750579 Jutlandia Terminal A/S 20-07-2019 21:45 803 Vlissingen Load Wind mill equipment St. Johns 21-07-2019 22:22 7175 10238 25,0 4,2 130,0
ISLAND CAPTAIN 3YHO 9579482 Blue Water Shipping A/S 19-07-2019 23:40 113 DK OFFSHORE INSTALLATIONS Load Drill chemicals ÅLESUND 25-07-2019 16:22 4841 4500 20,0 5,5 93,0
BOLDER OUYO2 9656993 Northern Offshore Services A/S 19-07-2019 16:50 3 DK OFFSHORE INSTALLATIONS Passenger call Passengers Fredericia 20-07-2019 07:22 118 55 7,0 2,1 20,9
ELISABETH M OXRF2 4400208 KEM-Offshore ApS 19-07-2019 16:50 21 DK OFFSHORE INSTALLATIONS Passenger call Passengers ESBJERG 20-07-2019 07:22 66 0 4,9 2,1 20,8
ESVAGT ALPHA OVZW2 7104752 Esvagt A/S 19-07-2019 11:10 303 Stavanger Crew change/Provion/Bunkers Esbjerg 31-07-2019 17:00 1244 610 12,0 4,8 68,5
FOB SWATH 7 OWSJ2 9772785 Offshore Windservice A/S 18-07-2019 18:35 52 DK OFFSHORE INSTALLATIONS Passenger call Passengers Hvide Sande 20-07-2019 07:22 331 0 11,0 2,1 33,2
MARGRETHE M OVOR2 9999999 KEM-Offshore ApS 17-07-2019 12:00 21 DK OFFSHORE INSTALLATIONS Passenger call Passengers ESBJERG 31-07-2019 07:22 49 0 5,0 2,0 19,8
FOB SWATH 3 OUWY2 9672935 Offshore Windservice A/S 17-07-2019 09:15 86 Ijmuiden (NLIJM) Repair HVIDE SANDE 24-07-2019 16:22 244 0 10,6 2,5 25,0
SAMANTHA (RI 159) OUVG 9999999 Partrederiet RI 159 v/Nicklas Davidsen 17-07-2019 08:30 12 OTHER DENMARK Discharge Shrimps HVIDE SANDE 21-07-2019 19:22 61 0 5,8 2,5 17,2
ESVAGT BETA OUJM2 8817746 Esvagt A/S 17-07-2019 08:00 302 DK OFFSHORE INSTALLATIONS Crew change/Provion/Bunkers ESBJERG 23-07-2019 00:05 2360 1157 14,6 5,4 76,6
RUNE EGHOLM (E 426) OYCG 9999999 Fiskeriselskabet Rune Egholm E 426 17-07-2019 08:00 12 OTHER DENMARK Discharge Shrimps ESBJERG 21-07-2019 19:22 67 0 5,9 2,5 18,0
ESVAGT DANA OWGN2 9787467 Esvagt A/S 17-07-2019 07:00 206 DK OFFSHORE INSTALLATIONS Crew change/Provion/Bunkers Esbjerg 24-07-2019 16:22 3808 1000 15,2 5,5 89,8
HO BUGT (E 4) OU7149 9999999 Kutter Ho Bugt E 4 16-07-2019 07:00 12 OTHER DENMARK Discharge Shrimps ESBJERG 21-07-2019 19:22 19 0 5,5 2,5 16,0
KAREN M OWFL2 8228830 KEM-Offshore ApS 11-07-2019 13:00 23 OTHER DENMARK Crew change/Provion/Bunkers Esbjerg 31-07-2019 22:22 108 0 6,0 2,1 26,9
SOFIA KAUL (E 41) OVPT 9999999 KAUL ApS 11-07-2019 10:20 12 OTHER DENMARK Discharge Shrimps Esbjerg 21-07-2019 19:22 79 0 5,8 2,5 20,0
JETTE KRISTINE (E 727) OWIU 8421860 Jette Kristine E 727 ApS 11-07-2019 07:00 53 Thyborøn Repair ESBJERG 31-07-2019 16:22 638 0 9,6 5,0 43,3
WIND PIONEER OWLA2 8660222 Ziton A/S 10-07-2019 11:00 201 Hirtshals Repair AARHUS 20-07-2019 22:22 1989 0 28,0 5,3 94,0
ISLAND PATRIOT LMWS 9325738 Copco A/S 04-07-2019 10:30 509 DK OFFSHORE INSTALLATIONS Discharge/load Offshore equipment ÅLESUND 19-07-2019 16:22 5800 4843 19,2 6,5 86,2
STATHAV 9 FTJ1312 9999999 Nordic Marine Oil A/S 01-07-2019 00:05 14 Esbjerg Bunker another vessel KØBENHAVN 31-07-2019 23:55 19 0 4,3 0,0 12,4
CICALA MFBZ4 8891443 M/V ST. CICALA / John Cefferty 01-07-2019 00:05 88 Esbjerg Temporary laid up MANCHESTER 31-07-2019 23:55 270 0 8,5 1,5 30,7
KIRSTEN GULLEV OU5826 9999999 Nordic Marine Oil A/S 01-07-2019 00:05 14 OTHER DENMARK Bunker another vessel ESBJERG 31-07-2019 23:55 21 70 4,3 1,5 14,4
FØNIKS SUPPORTER OUBJ2 8661020 Bunker One A/S 01-07-2019 00:05 7 Esbjerg Bunker another vessel københavn 31-07-2019 23:55 226 0 9,0 1,5 25,2
STATHAV 22 OWGA2 9999999 Nordic Marine Oil A/S 01-07-2019 00:05 14 Esbjerg Bunker another vessel Skagen 31-07-2019 23:55 131 0 6,5 3,5 27,4
SVITZER HELIOS OWLX2 7321659 EM. Z. Svitzer A/S 01-07-2019 00:05 307 Esbjerg Towing ESBJERG 31-07-2019 23:55 304 650 9,8 4,7 32,9
SOUNDLINK OXFT2 9999999 B B Towing og Diving A/S 01-07-2019 00:05 65 Esbjerg Towing Esbjerg 31-07-2019 23:55 30 0 4,2 1,5 13,0
FENJA OYIQ 9189378 Molslinjen A/S 01-07-2019 00:05 209 Nordby Havn, Fanø Passenger call Passengers - cars ESBJERG 31-07-2019 23:55 751 230 13,8 2,5 49,9
MENJA OYIU 9189380 Molslinjen A/S 01-07-2019 00:05 300 Nordby Havn, Fanø Passenger call Passengers - cars ESBJERG 31-07-2019 23:55 751 230 13,8 2,5 49,9
SONDERHO OYVH 8946779 Molslinjen A/S 01-07-2019 00:05 209 Nordby Havn, Fanø Passenger call Passengers ESBJERG 31-07-2019 23:55 93 30 6,0 1,5 25,0
SIGYN OZHB2 9114361 EM. Z. Svitzer A/S 01-07-2019 00:05 306 OTHER DENMARK Towing Kalundborg 31-07-2019 23:55 485 311 10,8 5,0 33,8
RAN XPKY 7043829 Niels Winther Maritime ApS 01-07-2019 00:05 84 OTHER DENMARK Temporary laid up THORSHAVN 31-07-2019 23:55 1100 1072 11,0 5,1 60,1
SUPPORTER OXNM2 1234584 Northern Offshore Services A/S 30-06-2019 15:15 84 Rendsburg Passenger call Passengers Skagen 31-07-2019 07:22 26 0 7,4 2,1 18,2
BLUE ANTARES OXJJ6 8401949 North Sea Hagland Shipbrokers ApS. 27-06-2019 22:30 501 Eemshaven (NLEEM) Crew change/Provion/Bunkers Faaborg 31-07-2019 22:22 2887 2800 18,5 5,5 76,4
DANMARK OXDK 5086279 Esbjerg Shipyard 25-06-2019 08:55 85 Rønne Repair Copenhagen 05-12-2019 14:00 737 0 10,1 4,9 65,0
MPI ENTERPRISE PCZJ 9578244 Blue Water Shipping A/S 22-06-2019 07:50 201 Bremerhaven Discharge Wind mill equipment BRESKENS 31-07-2019 23:22 11730 6314 40,0 6,5 120,8
CONNECTOR EXPRESS OYOJ2 9244568 Niels Winther Maritime ApS 21-06-2019 12:05 107 DK OFFSHORE INSTALLATIONS Await orders FREDERICIA 31-07-2019 12:22 4030 4505 19,0 5,6 90,2
SEA COMFORT OUZK2 9674282 TP Offshore A/S 21-06-2019 11:00 5 Borkum I. Crew change/Provion/Bunkers Grenaa 31-07-2019 12:22 326 0 11,3 2,8 25,3
LYØ (MHV 904) OVLD 219000161 Lokal Støtte Element Varde 20-06-2019 00:05 307 Helgoland I. Environmental protection Esbjerg 31-07-2019 22:22 100 0 5,6 3,6 27,2
GIANT OU2465 8415768 SDK Shipping A/S 19-06-2019 00:05 84 OTHER DENMARK Temporary laid up SVENDBORG 31-07-2019 22:22 16325 0 95,6 8,2 80,8
SØLØVEN OXQL2 8862569 O.S. Energy GmbH 08-06-2019 05:25 86 OFFSHORE, NORTH SEA Crew change/Provion/Bunkers ESBJERG 31-07-2019 22:22 390 0 8,5 3,5 46,0
SEAJACKS SCYLLA 3FSA3 9698939 Seajacks International Limited 21-04-2019 05:40 84 DK OFFSHORE INSTALLATIONS Demobilisation Panama 31-07-2019 23:55 23641 18907 50,0 8,8 139,0
BLUE ORCA WDG8787 9670341 Jutlandia Terminal A/S 11-04-2019 10:30 507 OTHER DENMARK Load Chemicals Galliano, LA 31-07-2019 22:22 7115 5065 18,3 6,5 94,8
PACIFIC OSPREY 5BUF3 9621704 Swire Blue Ocean 07-04-2019 00:40 117 Rotterdam Demobilisation Limassol 31-12-2019 15:22 24586 13155 49,0 5,5 161,3
DI-JE (E 61) OWFZ 5128062 Partsrederiet E 61 Di-Je 03-02-2019 17:30 12 OTHER DENMARK Discharge Shrimps ESBJERG 31-12-2019 19:22 48 0 6,5 2,5 20,0
HEIMDAL OXQN2 9999999 KEM-Offshore ApS 10-10-2018 14:00 21 DK OFFSHORE INSTALLATIONS Passenger call Passengers ESBJERG 31-12-2019 07:22 19 10 5,0 1,5 16,1
MADOG V4DR 6615467 Malta Towage Limited 14-09-2018 14:00 89 Esbjerg Temporary laid up BASSETERRE - ST KITTS 31-12-2019 23:55 185 0 7,2 3,7 25,7
KURBERG OW2361 8600064 Thor P/F Ltd. 16-07-2018 18:35 88 Other ports, Færø Islands Temporary laid up Torshavn 31-12-2019 23:55 488 488 8,9 3,5 38,6
TORSVIK OZ2029 7807316 Thor P/F Ltd. 13-07-2018 09:30 88 Las Palmas Temporary laid up Hosvik 31-12-2019 23:55 370 0 8,5 3,6 39,2
COLGA 9V9536 8751473 Dixstone Holding LtD 24-05-2018 06:22 78 OTHER DENMARK Repair Singapore 31-12-2019 23:59 9352 0 86,3 9,8 74,7
SALLING OUIG2 7431571 Salling Offshore-Service ApS 21-05-2018 18:55 59 OTHER DENMARK Crew change/Provion/Bunkers Esbjerg 31-12-2019 23:22 370 300 7,2 4,6 37,9
DIGI OVXM 9999999 Esbjerg Bedding ApS 31-01-2015 22:10 66 Hvide Sande Shelter LEMVIG 31-12-2019 23:59 29 0 4,2 1,0 15,5